Airfield :
LOGIN :

Register | Disclaimer

   EN    FR    IT 

 










Legend :    VFR   Marginal VFR   IFR   Intensive IFR   Very Intensive IFR
Visi :
Ceiling :
>= 8 km
>= 3000ft
5 to 8 km
1000 to 3000 ft
1500m to 5 km
500 to 1000 ft
800 to 1500m
200 to 500 ft
< 800m
< 200 ft
Symbols :   Thunderstorms  Fog  Heavy snow  Heavy precipitations  Wind > 20 kt
SIGMETs :     Misc.  Thunderstorms  Icing  Turbulence  Mountain Waves  Volcanic Ashes






- Airport Elevation : 228 ft
- IATA code : OPO


LPPR - Porto Fr. Sa Carneiro

CURRENT METAR :
  • 301330Z 26005KT 220V320 9999 SCT004 BKN007 19/17 Q1012

EXPIRED METARs :
  • 301300Z 28004KT 220V320 9999 SCT004 BKN007 19/17 Q1012
  • 301230Z 29004KT 240V340 9999 OVC005 19/17 Q1013
  • 301200Z 29003KT 230V320 9999 OVC004 18/16 Q1013
  • 301130Z 23004KT 180V270 9999 OVC004 18/17 Q1013
  • 301100Z 27003KT 200V310 9000 OVC004 17/17 Q1013

TAF AMD TAF LPPR
Valid from the 30 at 12:00 until the 31 at 12:00 UTC


301140Z 3012/3112 26005KT 5000 BR BKN004
BECMG 3012/3014 30010KT 9999 NSW SCT015
PROB30
TEMPO 3014/3018 FEW030CB
BECMG 3019/3021 VRB02KT SCT008
TEMPO 3021/3109 2000 BR BKN004
BECMG 3110/3112 30008KT FEW018



MET'MAP, your aeronautical weather chart ! - Copyright ORBIFLY December 2007 - Disclaimer

ORBIFLY MET'MAP TEAM :

Programming & Development : Alexandra Zaïnal
Concept & original design : Baudouin d'Aumeries
Assistance for programming : Marc-Olivier Méhu
Technical & hardware support : Manuel Goepfert

Contact : metmap@orbifly.com




SOURCES & CREDITS :

   NOAA